sensor_id;sensor_type;location;lat;lon;timestamp;P1;durP1;ratioP1;P2;durP2;ratioP2
20669;SDS011;10494;50.868;4.180;2023-07-13T00:01:46;7.15;;;2.20;;
20669;SDS011;10494;50.868;4.180;2023-07-13T00:04:15;6.07;;;2.00;;
20669;SDS011;10494;50.868;4.180;2023-07-13T00:06:42;7.45;;;2.20;;
20669;SDS011;10494;50.868;4.180;2023-07-13T00:09:09;11.07;;;2.50;;
20669;SDS011;10494;50.868;4.180;2023-07-13T00:11:37;10.45;;;2.05;;
20669;SDS011;10494;50.868;4.180;2023-07-13T00:14:03;12.88;;;2.40;;
20669;SDS011;10494;50.868;4.180;2023-07-13T00:16:28;7.55;;;1.83;;
20669;SDS011;10494;50.868;4.180;2023-07-13T00:18:54;9.05;;;1.83;;
20669;SDS011;10494;50.868;4.180;2023-07-13T00:21:20;11.55;;;2.55;;
20669;SDS011;10494;50.868;4.180;2023-07-13T00:23:45;14.07;;;2.70;;
20669;SDS011;10494;50.868;4.180;2023-07-13T00:26:11;9.80;;;2.17;;
20669;SDS011;10494;50.868;4.180;2023-07-13T00:28:37;11.18;;;2.22;;
20669;SDS011;10494;50.868;4.180;2023-07-13T00:31:04;7.70;;;2.00;;
20669;SDS011;10494;50.868;4.180;2023-07-13T00:33:30;12.40;;;2.50;;
20669;SDS011;10494;50.868;4.180;2023-07-13T00:35:56;10.90;;;2.70;;
20669;SDS011;10494;50.868;4.180;2023-07-13T00:38:22;9.55;;;1.90;;
20669;SDS011;10494;50.868;4.180;2023-07-13T00:40:48;9.60;;;2.30;;
20669;SDS011;10494;50.868;4.180;2023-07-13T00:43:18;9.68;;;2.50;;
20669;SDS011;10494;50.868;4.180;2023-07-13T00:48:11;12.65;;;2.40;;
20669;SDS011;10494;50.868;4.180;2023-07-13T00:50:52;11.10;;;2.28;;
20669;SDS011;10494;50.868;4.180;2023-07-13T00:53:20;8.40;;;2.35;;
20669;SDS011;10494;50.868;4.180;2023-07-13T00:55:49;12.20;;;2.08;;
20669;SDS011;10494;50.868;4.180;2023-07-13T00:58:16;8.43;;;2.40;;
20669;SDS011;10494;50.868;4.180;2023-07-13T01:00:42;8.52;;;2.33;;
20669;SDS011;10494;50.868;4.180;2023-07-13T01:03:07;11.10;;;2.55;;
20669;SDS011;10494;50.868;4.180;2023-07-13T01:05:34;15.20;;;2.35;;
20669;SDS011;10494;50.868;4.180;2023-07-13T01:08:00;13.10;;;3.08;;
20669;SDS011;10494;50.868;4.180;2023-07-13T01:10:27;9.82;;;2.40;;
20669;SDS011;10494;50.868;4.180;2023-07-13T01:12:53;19.02;;;3.47;;
20669;SDS011;10494;50.868;4.180;2023-07-13T01:18:09;12.15;;;2.63;;
20669;SDS011;10494;50.868;4.180;2023-07-13T01:20:37;5.47;;;2.15;;
20669;SDS011;10494;50.868;4.180;2023-07-13T01:23:07;15.18;;;2.92;;
20669;SDS011;10494;50.868;4.180;2023-07-13T01:25:35;15.48;;;2.83;;
20669;SDS011;10494;50.868;4.180;2023-07-13T01:28:02;7.15;;;2.33;;
20669;SDS011;10494;50.868;4.180;2023-07-13T01:30:33;7.35;;;2.42;;
20669;SDS011;10494;50.868;4.180;2023-07-13T01:33:00;11.18;;;2.58;;
20669;SDS011;10494;50.868;4.180;2023-07-13T01:35:26;8.93;;;2.50;;
20669;SDS011;10494;50.868;4.180;2023-07-13T01:37:52;10.85;;;2.95;;
20669;SDS011;10494;50.868;4.180;2023-07-13T01:40:18;16.02;;;2.50;;
20669;SDS011;10494;50.868;4.180;2023-07-13T01:42:44;10.02;;;2.60;;
20669;SDS011;10494;50.868;4.180;2023-07-13T01:45:10;11.55;;;2.97;;
20669;SDS011;10494;50.868;4.180;2023-07-13T01:47:36;12.50;;;2.47;;
20669;SDS011;10494;50.868;4.180;2023-07-13T01:50:02;9.95;;;2.53;;
20669;SDS011;10494;50.868;4.180;2023-07-13T01:52:28;10.45;;;2.92;;
20669;SDS011;10494;50.868;4.180;2023-07-13T01:54:53;12.18;;;3.10;;
20669;SDS011;10494;50.868;4.180;2023-07-13T01:57:19;8.98;;;2.85;;
20669;SDS011;10494;50.868;4.180;2023-07-13T01:59:45;13.90;;;3.33;;
20669;SDS011;10494;50.868;4.180;2023-07-13T02:02:10;11.60;;;3.72;;
20669;SDS011;10494;50.868;4.180;2023-07-13T02:04:36;12.02;;;2.88;;
20669;SDS011;10494;50.868;4.180;2023-07-13T02:07:02;10.60;;;3.20;;
20669;SDS011;10494;50.868;4.180;2023-07-13T02:09:28;12.75;;;3.15;;
20669;SDS011;10494;50.868;4.180;2023-07-13T02:11:53;12.40;;;3.42;;
20669;SDS011;10494;50.868;4.180;2023-07-13T02:14:19;13.27;;;3.08;;
20669;SDS011;10494;50.868;4.180;2023-07-13T02:16:44;11.02;;;3.47;;
20669;SDS011;10494;50.868;4.180;2023-07-13T02:19:10;12.77;;;3.60;;
20669;SDS011;10494;50.868;4.180;2023-07-13T02:21:35;14.52;;;3.30;;
20669;SDS011;10494;50.868;4.180;2023-07-13T02:24:01;9.20;;;3.22;;
20669;SDS011;10494;50.868;4.180;2023-07-13T02:26:27;12.43;;;3.08;;
20669;SDS011;10494;50.868;4.180;2023-07-13T02:28:52;12.35;;;3.45;;
20669;SDS011;10494;50.868;4.180;2023-07-13T02:31:19;14.57;;;3.03;;
20669;SDS011;10494;50.868;4.180;2023-07-13T02:33:44;9.88;;;2.78;;
20669;SDS011;10494;50.868;4.180;2023-07-13T02:36:11;11.77;;;3.30;;
20669;SDS011;10494;50.868;4.180;2023-07-13T02:38:37;8.85;;;2.90;;
20669;SDS011;10494;50.868;4.180;2023-07-13T02:41:03;11.10;;;2.75;;
20669;SDS011;10494;50.868;4.180;2023-07-13T02:43:30;17.60;;;4.40;;
20669;SDS011;10494;50.868;4.180;2023-07-13T02:45:56;13.35;;;3.65;;
20669;SDS011;10494;50.868;4.180;2023-07-13T02:48:28;16.08;;;3.53;;
20669;SDS011;10494;50.868;4.180;2023-07-13T02:50:54;8.15;;;3.28;;
20669;SDS011;10494;50.868;4.180;2023-07-13T02:53:20;14.88;;;3.55;;
20669;SDS011;10494;50.868;4.180;2023-07-13T02:55:46;15.15;;;3.78;;
20669;SDS011;10494;50.868;4.180;2023-07-13T02:58:12;11.55;;;3.03;;
20669;SDS011;10494;50.868;4.180;2023-07-13T03:00:41;8.80;;;3.35;;
20669;SDS011;10494;50.868;4.180;2023-07-13T03:03:08;12.50;;;3.20;;
20669;SDS011;10494;50.868;4.180;2023-07-13T03:05:34;12.10;;;3.25;;
20669;SDS011;10494;50.868;4.180;2023-07-13T03:08:00;21.67;;;3.95;;
20669;SDS011;10494;50.868;4.180;2023-07-13T03:10:25;14.25;;;3.63;;
20669;SDS011;10494;50.868;4.180;2023-07-13T03:12:51;15.98;;;4.05;;
20669;SDS011;10494;50.868;4.180;2023-07-13T03:15:16;10.48;;;3.15;;
20669;SDS011;10494;50.868;4.180;2023-07-13T03:17:42;10.05;;;3.38;;
20669;SDS011;10494;50.868;4.180;2023-07-13T03:20:07;9.43;;;2.80;;
20669;SDS011;10494;50.868;4.180;2023-07-13T03:22:34;17.63;;;4.20;;
20669;SDS011;10494;50.868;4.180;2023-07-13T03:24:59;16.23;;;3.35;;
20669;SDS011;10494;50.868;4.180;2023-07-13T03:27:25;20.42;;;3.80;;
20669;SDS011;10494;50.868;4.180;2023-07-13T03:29:50;13.05;;;3.50;;
20669;SDS011;10494;50.868;4.180;2023-07-13T03:32:16;13.65;;;3.40;;
20669;SDS011;10494;50.868;4.180;2023-07-13T03:34:41;19.77;;;4.32;;
20669;SDS011;10494;50.868;4.180;2023-07-13T03:37:07;19.58;;;4.03;;
20669;SDS011;10494;50.868;4.180;2023-07-13T03:39:33;16.27;;;4.28;;
20669;SDS011;10494;50.868;4.180;2023-07-13T03:41:58;12.10;;;3.60;;
20669;SDS011;10494;50.868;4.180;2023-07-13T03:44:24;31.73;;;3.80;;
20669;SDS011;10494;50.868;4.180;2023-07-13T03:46:50;15.40;;;3.97;;
20669;SDS011;10494;50.868;4.180;2023-07-13T03:49:15;15.57;;;3.65;;
20669;SDS011;10494;50.868;4.180;2023-07-13T03:51:41;13.10;;;3.55;;
20669;SDS011;10494;50.868;4.180;2023-07-13T03:54:06;19.05;;;4.18;;
20669;SDS011;10494;50.868;4.180;2023-07-13T03:56:32;14.60;;;4.80;;
20669;SDS011;10494;50.868;4.180;2023-07-13T03:58:58;13.63;;;3.38;;
20669;SDS011;10494;50.868;4.180;2023-07-13T04:01:25;12.98;;;3.25;;
20669;SDS011;10494;50.868;4.180;2023-07-13T04:03:51;15.75;;;3.85;;
20669;SDS011;10494;50.868;4.180;2023-07-13T04:06:23;15.32;;;4.03;;
20669;SDS011;10494;50.868;4.180;2023-07-13T04:08:52;17.73;;;4.40;;
20669;SDS011;10494;50.868;4.180;2023-07-13T04:11:20;15.98;;;3.60;;
20669;SDS011;10494;50.868;4.180;2023-07-13T04:13:47;11.32;;;3.88;;
20669;SDS011;10494;50.868;4.180;2023-07-13T04:16:14;12.32;;;3.65;;
20669;SDS011;10494;50.868;4.180;2023-07-13T04:18:41;13.68;;;3.53;;
20669;SDS011;10494;50.868;4.180;2023-07-13T04:21:06;13.95;;;3.50;;
20669;SDS011;10494;50.868;4.180;2023-07-13T04:23:34;16.23;;;3.58;;
20669;SDS011;10494;50.868;4.180;2023-07-13T04:25:59;18.20;;;3.80;;
20669;SDS011;10494;50.868;4.180;2023-07-13T04:28:25;12.43;;;3.50;;
20669;SDS011;10494;50.868;4.180;2023-07-13T04:30:52;10.10;;;3.38;;
20669;SDS011;10494;50.868;4.180;2023-07-13T04:33:18;15.20;;;3.83;;
20669;SDS011;10494;50.868;4.180;2023-07-13T04:35:47;11.07;;;3.25;;
20669;SDS011;10494;50.868;4.180;2023-07-13T04:38:22;13.93;;;3.53;;
20669;SDS011;10494;50.868;4.180;2023-07-13T04:40:55;14.02;;;3.50;;
20669;SDS011;10494;50.868;4.180;2023-07-13T04:43:22;15.85;;;3.58;;
20669;SDS011;10494;50.868;4.180;2023-07-13T04:45:49;13.95;;;3.88;;
20669;SDS011;10494;50.868;4.180;2023-07-13T04:48:15;14.43;;;3.72;;
20669;SDS011;10494;50.868;4.180;2023-07-13T04:50:41;22.08;;;4.50;;
20669;SDS011;10494;50.868;4.180;2023-07-13T04:53:08;14.43;;;3.42;;
20669;SDS011;10494;50.868;4.180;2023-07-13T04:55:33;14.48;;;3.38;;
20669;SDS011;10494;50.868;4.180;2023-07-13T04:57:59;16.80;;;3.90;;
20669;SDS011;10494;50.868;4.180;2023-07-13T05:00:25;18.67;;;3.95;;
20669;SDS011;10494;50.868;4.180;2023-07-13T05:02:52;11.43;;;3.47;;
20669;SDS011;10494;50.868;4.180;2023-07-13T05:05:18;16.85;;;3.95;;
20669;SDS011;10494;50.868;4.180;2023-07-13T05:07:44;13.52;;;3.25;;
20669;SDS011;10494;50.868;4.180;2023-07-13T05:10:09;18.90;;;3.85;;
20669;SDS011;10494;50.868;4.180;2023-07-13T05:12:35;14.05;;;3.30;;
20669;SDS011;10494;50.868;4.180;2023-07-13T05:15:01;15.93;;;3.70;;
20669;SDS011;10494;50.868;4.180;2023-07-13T05:17:27;19.83;;;4.18;;
20669;SDS011;10494;50.868;4.180;2023-07-13T05:19:53;15.35;;;3.65;;
20669;SDS011;10494;50.868;4.180;2023-07-13T05:22:19;16.88;;;4.32;;
20669;SDS011;10494;50.868;4.180;2023-07-13T05:24:44;13.23;;;3.30;;
20669;SDS011;10494;50.868;4.180;2023-07-13T05:27:10;20.95;;;3.72;;
20669;SDS011;10494;50.868;4.180;2023-07-13T05:29:36;10.27;;;3.10;;
20669;SDS011;10494;50.868;4.180;2023-07-13T05:32:01;14.20;;;3.75;;
20669;SDS011;10494;50.868;4.180;2023-07-13T05:34:28;15.43;;;3.85;;
20669;SDS011;10494;50.868;4.180;2023-07-13T05:36:54;15.52;;;3.33;;
20669;SDS011;10494;50.868;4.180;2023-07-13T05:39:19;15.82;;;3.30;;
20669;SDS011;10494;50.868;4.180;2023-07-13T05:41:45;15.50;;;3.35;;
20669;SDS011;10494;50.868;4.180;2023-07-13T05:44:11;13.50;;;3.72;;
20669;SDS011;10494;50.868;4.180;2023-07-13T05:46:36;13.60;;;3.35;;
20669;SDS011;10494;50.868;4.180;2023-07-13T05:49:02;12.57;;;3.42;;
20669;SDS011;10494;50.868;4.180;2023-07-13T05:51:28;10.48;;;3.13;;
20669;SDS011;10494;50.868;4.180;2023-07-13T05:53:54;16.65;;;4.18;;
20669;SDS011;10494;50.868;4.180;2023-07-13T05:56:19;14.93;;;4.10;;
20669;SDS011;10494;50.868;4.180;2023-07-13T05:58:45;14.50;;;3.75;;
20669;SDS011;10494;50.868;4.180;2023-07-13T06:01:13;16.50;;;3.75;;
20669;SDS011;10494;50.868;4.180;2023-07-13T06:03:39;18.15;;;4.18;;
20669;SDS011;10494;50.868;4.180;2023-07-13T06:06:05;14.85;;;3.70;;
20669;SDS011;10494;50.868;4.180;2023-07-13T06:08:31;12.15;;;3.38;;
20669;SDS011;10494;50.868;4.180;2023-07-13T06:13:30;8.85;;;3.15;;
20669;SDS011;10494;50.868;4.180;2023-07-13T06:15:56;21.50;;;3.83;;
20669;SDS011;10494;50.868;4.180;2023-07-13T06:18:21;18.65;;;3.33;;
20669;SDS011;10494;50.868;4.180;2023-07-13T06:20:47;14.13;;;3.50;;
20669;SDS011;10494;50.868;4.180;2023-07-13T06:23:12;16.90;;;3.92;;
20669;SDS011;10494;50.868;4.180;2023-07-13T06:25:38;17.15;;;4.05;;
20669;SDS011;10494;50.868;4.180;2023-07-13T06:28:04;14.13;;;4.05;;
20669;SDS011;10494;50.868;4.180;2023-07-13T06:30:30;13.02;;;3.40;;
20669;SDS011;10494;50.868;4.180;2023-07-13T06:32:56;12.65;;;3.28;;
20669;SDS011;10494;50.868;4.180;2023-07-13T06:35:22;13.25;;;3.60;;
20669;SDS011;10494;50.868;4.180;2023-07-13T06:37:48;11.82;;;3.47;;
20669;SDS011;10494;50.868;4.180;2023-07-13T06:40:13;15.65;;;3.92;;
20669;SDS011;10494;50.868;4.180;2023-07-13T06:42:39;20.58;;;3.63;;
20669;SDS011;10494;50.868;4.180;2023-07-13T06:45:05;11.05;;;4.35;;
20669;SDS011;10494;50.868;4.180;2023-07-13T06:47:31;14.27;;;3.08;;
20669;SDS011;10494;50.868;4.180;2023-07-13T06:49:57;14.43;;;4.00;;
20669;SDS011;10494;50.868;4.180;2023-07-13T06:52:22;23.30;;;3.90;;
20669;SDS011;10494;50.868;4.180;2023-07-13T06:54:48;19.05;;;3.58;;
20669;SDS011;10494;50.868;4.180;2023-07-13T06:57:13;14.25;;;4.05;;
20669;SDS011;10494;50.868;4.180;2023-07-13T06:59:39;14.27;;;3.70;;
20669;SDS011;10494;50.868;4.180;2023-07-13T07:02:05;16.23;;;3.88;;
20669;SDS011;10494;50.868;4.180;2023-07-13T07:04:31;17.92;;;4.03;;
20669;SDS011;10494;50.868;4.180;2023-07-13T07:06:56;12.95;;;3.03;;
20669;SDS011;10494;50.868;4.180;2023-07-13T07:09:22;13.07;;;2.97;;
20669;SDS011;10494;50.868;4.180;2023-07-13T07:11:47;10.95;;;3.60;;
20669;SDS011;10494;50.868;4.180;2023-07-13T07:14:13;9.27;;;2.92;;
20669;SDS011;10494;50.868;4.180;2023-07-13T07:16:39;13.05;;;3.30;;
20669;SDS011;10494;50.868;4.180;2023-07-13T07:19:04;14.85;;;3.30;;
20669;SDS011;10494;50.868;4.180;2023-07-13T07:21:30;15.93;;;3.97;;
20669;SDS011;10494;50.868;4.180;2023-07-13T07:23:56;12.45;;;3.40;;
20669;SDS011;10494;50.868;4.180;2023-07-13T07:26:22;20.40;;;4.07;;
20669;SDS011;10494;50.868;4.180;2023-07-13T07:28:47;17.77;;;3.17;;
20669;SDS011;10494;50.868;4.180;2023-07-13T07:31:13;11.32;;;2.90;;
20669;SDS011;10494;50.868;4.180;2023-07-13T07:33:38;10.50;;;2.55;;
20669;SDS011;10494;50.868;4.180;2023-07-13T07:36:04;15.23;;;3.00;;
20669;SDS011;10494;50.868;4.180;2023-07-13T07:38:30;13.70;;;2.88;;
20669;SDS011;10494;50.868;4.180;2023-07-13T07:40:56;15.23;;;3.55;;
20669;SDS011;10494;50.868;4.180;2023-07-13T07:43:21;10.02;;;3.13;;
20669;SDS011;10494;50.868;4.180;2023-07-13T07:45:47;12.93;;;2.85;;
20669;SDS011;10494;50.868;4.180;2023-07-13T07:48:12;14.00;;;2.42;;
20669;SDS011;10494;50.868;4.180;2023-07-13T07:50:38;10.82;;;2.55;;
20669;SDS011;10494;50.868;4.180;2023-07-13T07:53:04;16.42;;;2.88;;
20669;SDS011;10494;50.868;4.180;2023-07-13T07:55:33;15.32;;;2.92;;
20669;SDS011;10494;50.868;4.180;2023-07-13T07:58:00;10.95;;;2.95;;
20669;SDS011;10494;50.868;4.180;2023-07-13T08:00:25;9.98;;;2.83;;
20669;SDS011;10494;50.868;4.180;2023-07-13T08:02:52;9.57;;;2.60;;
20669;SDS011;10494;50.868;4.180;2023-07-13T08:05:17;8.75;;;2.30;;
20669;SDS011;10494;50.868;4.180;2023-07-13T08:07:43;11.98;;;2.85;;
20669;SDS011;10494;50.868;4.180;2023-07-13T08:10:09;7.78;;;2.50;;
20669;SDS011;10494;50.868;4.180;2023-07-13T08:12:35;13.70;;;3.15;;
20669;SDS011;10494;50.868;4.180;2023-07-13T08:15:01;12.82;;;3.00;;
20669;SDS011;10494;50.868;4.180;2023-07-13T08:17:27;11.30;;;2.97;;
20669;SDS011;10494;50.868;4.180;2023-07-13T08:19:53;10.30;;;2.53;;
20669;SDS011;10494;50.868;4.180;2023-07-13T08:22:19;7.32;;;2.17;;
20669;SDS011;10494;50.868;4.180;2023-07-13T08:24:48;8.80;;;2.78;;
20669;SDS011;10494;50.868;4.180;2023-07-13T08:27:20;7.72;;;2.33;;
20669;SDS011;10494;50.868;4.180;2023-07-13T08:29:47;7.35;;;2.30;;
20669;SDS011;10494;50.868;4.180;2023-07-13T08:32:13;9.00;;;2.50;;
20669;SDS011;10494;50.868;4.180;2023-07-13T08:34:39;10.85;;;2.60;;
20669;SDS011;10494;50.868;4.180;2023-07-13T08:37:05;11.40;;;2.95;;
20669;SDS011;10494;50.868;4.180;2023-07-13T08:39:32;13.80;;;3.05;;
20669;SDS011;10494;50.868;4.180;2023-07-13T08:42:00;12.75;;;2.60;;
20669;SDS011;10494;50.868;4.180;2023-07-13T08:47:21;9.50;;;2.70;;
20669;SDS011;10494;50.868;4.180;2023-07-13T08:49:49;11.40;;;2.47;;
20669;SDS011;10494;50.868;4.180;2023-07-13T08:54:51;8.77;;;2.30;;
20669;SDS011;10494;50.868;4.180;2023-07-13T08:57:20;6.63;;;1.92;;
20669;SDS011;10494;50.868;4.180;2023-07-13T08:59:50;7.80;;;2.10;;
20669;SDS011;10494;50.868;4.180;2023-07-13T09:05:10;9.32;;;2.28;;
20669;SDS011;10494;50.868;4.180;2023-07-13T09:10:48;8.40;;;2.20;;
20669;SDS011;10494;50.868;4.180;2023-07-13T09:13:27;10.02;;;1.90;;
20669;SDS011;10494;50.868;4.180;2023-07-13T09:15:56;11.02;;;2.35;;
20669;SDS011;10494;50.868;4.180;2023-07-13T09:21:00;7.80;;;2.50;;
20669;SDS011;10494;50.868;4.180;2023-07-13T09:23:30;8.45;;;2.55;;
20669;SDS011;10494;50.868;4.180;2023-07-13T09:26:04;7.75;;;1.90;;
20669;SDS011;10494;50.868;4.180;2023-07-13T09:28:37;8.50;;;2.10;;
20669;SDS011;10494;50.868;4.180;2023-07-13T09:31:20;6.95;;;2.17;;
20669;SDS011;10494;50.868;4.180;2023-07-13T09:33:54;6.78;;;2.28;;
20669;SDS011;10494;50.868;4.180;2023-07-13T09:36:22;8.45;;;2.38;;
20669;SDS011;10494;50.868;4.180;2023-07-13T09:38:58;7.80;;;2.13;;
20669;SDS011;10494;50.868;4.180;2023-07-13T09:44:16;10.40;;;2.42;;
20669;SDS011;10494;50.868;4.180;2023-07-13T09:46:47;6.28;;;2.17;;
20669;SDS011;10494;50.868;4.180;2023-07-13T09:49:18;10.38;;;2.22;;
20669;SDS011;10494;50.868;4.180;2023-07-13T09:51:43;6.32;;;2.45;;
20669;SDS011;10494;50.868;4.180;2023-07-13T09:54:17;12.70;;;2.95;;
20669;SDS011;10494;50.868;4.180;2023-07-13T09:56:44;14.20;;;2.40;;
20669;SDS011;10494;50.868;4.180;2023-07-13T09:59:19;9.73;;;2.33;;
20669;SDS011;10494;50.868;4.180;2023-07-13T10:01:49;9.00;;;2.50;;
20669;SDS011;10494;50.868;4.180;2023-07-13T10:04:19;9.80;;;2.40;;
20669;SDS011;10494;50.868;4.180;2023-07-13T10:06:58;7.97;;;2.05;;
20669;SDS011;10494;50.868;4.180;2023-07-13T10:09:34;7.85;;;2.58;;
20669;SDS011;10494;50.868;4.180;2023-07-13T10:12:00;4.45;;;1.88;;
20669;SDS011;10494;50.868;4.180;2023-07-13T10:14:26;10.23;;;2.63;;
20669;SDS011;10494;50.868;4.180;2023-07-13T10:16:56;6.15;;;2.05;;
20669;SDS011;10494;50.868;4.180;2023-07-13T10:19:27;8.02;;;2.58;;
20669;SDS011;10494;50.868;4.180;2023-07-13T10:22:02;10.95;;;2.53;;
20669;SDS011;10494;50.868;4.180;2023-07-13T10:24:38;12.63;;;2.45;;
20669;SDS011;10494;50.868;4.180;2023-07-13T10:27:09;8.88;;;2.35;;
20669;SDS011;10494;50.868;4.180;2023-07-13T10:29:46;10.50;;;2.60;;
20669;SDS011;10494;50.868;4.180;2023-07-13T10:32:33;9.15;;;2.70;;
20669;SDS011;10494;50.868;4.180;2023-07-13T10:35:00;8.13;;;2.78;;
20669;SDS011;10494;50.868;4.180;2023-07-13T10:37:29;10.75;;;2.90;;
20669;SDS011;10494;50.868;4.180;2023-07-13T10:40:06;8.40;;;2.60;;
20669;SDS011;10494;50.868;4.180;2023-07-13T10:42:39;11.05;;;3.03;;
20669;SDS011;10494;50.868;4.180;2023-07-13T10:45:17;9.23;;;2.92;;
20669;SDS011;10494;50.868;4.180;2023-07-13T10:47:45;9.32;;;3.13;;
20669;SDS011;10494;50.868;4.180;2023-07-13T10:50:21;6.95;;;2.78;;
20669;SDS011;10494;50.868;4.180;2023-07-13T10:53:01;10.68;;;2.80;;
20669;SDS011;10494;50.868;4.180;2023-07-13T10:55:36;7.07;;;2.13;;
20669;SDS011;10494;50.868;4.180;2023-07-13T11:00:56;8.68;;;2.70;;
20669;SDS011;10494;50.868;4.180;2023-07-13T11:03:23;8.15;;;2.15;;
20669;SDS011;10494;50.868;4.180;2023-07-13T11:06:03;8.60;;;1.98;;
20669;SDS011;10494;50.868;4.180;2023-07-13T11:18:50;8.13;;;2.55;;
20669;SDS011;10494;50.868;4.180;2023-07-13T11:21:28;4.20;;;1.67;;
20669;SDS011;10494;50.868;4.180;2023-07-13T11:24:15;7.47;;;2.03;;
20669;SDS011;10494;50.868;4.180;2023-07-13T11:31:42;11.63;;;2.58;;
20669;SDS011;10494;50.868;4.180;2023-07-13T11:34:15;7.53;;;2.28;;
20669;SDS011;10494;50.868;4.180;2023-07-13T11:36:46;9.90;;;2.35;;
20669;SDS011;10494;50.868;4.180;2023-07-13T11:41:44;7.70;;;2.35;;
20669;SDS011;10494;50.868;4.180;2023-07-13T11:44:20;9.93;;;2.60;;
20669;SDS011;10494;50.868;4.180;2023-07-13T11:46:56;8.88;;;3.05;;
20669;SDS011;10494;50.868;4.180;2023-07-13T11:49:30;9.45;;;2.53;;
20669;SDS011;10494;50.868;4.180;2023-07-13T11:51:57;9.57;;;2.40;;
20669;SDS011;10494;50.868;4.180;2023-07-13T11:56:55;8.52;;;2.42;;
20669;SDS011;10494;50.868;4.180;2023-07-13T11:59:25;9.15;;;2.35;;
20669;SDS011;10494;50.868;4.180;2023-07-13T12:01:52;8.45;;;2.30;;
20669;SDS011;10494;50.868;4.180;2023-07-13T12:04:31;3.53;;;1.63;;
20669;SDS011;10494;50.868;4.180;2023-07-13T12:07:14;9.23;;;2.20;;
20669;SDS011;10494;50.868;4.180;2023-07-13T12:09:41;4.85;;;1.80;;
20669;SDS011;10494;50.868;4.180;2023-07-13T12:12:11;6.78;;;1.60;;
20669;SDS011;10494;50.868;4.180;2023-07-13T12:14:38;5.63;;;1.85;;
20669;SDS011;10494;50.868;4.180;2023-07-13T12:17:16;5.45;;;1.88;;
20669;SDS011;10494;50.868;4.180;2023-07-13T12:19:44;3.67;;;1.75;;
20669;SDS011;10494;50.868;4.180;2023-07-13T12:22:12;3.70;;;1.77;;
20669;SDS011;10494;50.868;4.180;2023-07-13T12:24:39;4.72;;;2.05;;
20669;SDS011;10494;50.868;4.180;2023-07-13T12:27:13;3.63;;;2.00;;
20669;SDS011;10494;50.868;4.180;2023-07-13T12:29:58;7.13;;;1.77;;
20669;SDS011;10494;50.868;4.180;2023-07-13T12:32:26;5.32;;;2.13;;
20669;SDS011;10494;50.868;4.180;2023-07-13T12:34:53;5.53;;;1.85;;
20669;SDS011;10494;50.868;4.180;2023-07-13T12:37:30;10.50;;;2.22;;
20669;SDS011;10494;50.868;4.180;2023-07-13T12:40:00;5.72;;;2.15;;
20669;SDS011;10494;50.868;4.180;2023-07-13T12:42:27;4.20;;;1.92;;
20669;SDS011;10494;50.868;4.180;2023-07-13T12:45:30;3.60;;;2.30;;
20669;SDS011;10494;50.868;4.180;2023-07-13T12:48:06;4.32;;;2.10;;
20669;SDS011;10494;50.868;4.180;2023-07-13T12:50:41;5.43;;;2.10;;
20669;SDS011;10494;50.868;4.180;2023-07-13T12:53:19;5.43;;;1.92;;
20669;SDS011;10494;50.868;4.180;2023-07-13T12:55:54;4.88;;;1.90;;
20669;SDS011;10494;50.868;4.180;2023-07-13T13:00:56;4.47;;;2.70;;
20669;SDS011;10494;50.868;4.180;2023-07-13T13:03:33;3.22;;;1.77;;
20669;SDS011;10494;50.868;4.180;2023-07-13T13:08:43;4.50;;;1.65;;
20669;SDS011;10494;50.868;4.180;2023-07-13T13:11:14;6.40;;;2.20;;
20669;SDS011;10494;50.868;4.180;2023-07-13T13:13:41;5.93;;;2.13;;
20669;SDS011;10494;50.868;4.180;2023-07-13T13:19:17;4.03;;;1.70;;
20669;SDS011;10494;50.868;4.180;2023-07-13T13:21:53;3.42;;;1.40;;
20669;SDS011;10494;50.868;4.180;2023-07-13T13:24:22;6.22;;;2.00;;
20669;SDS011;10494;50.868;4.180;2023-07-13T13:26:50;4.63;;;2.00;;
20669;SDS011;10494;50.868;4.180;2023-07-13T13:29:17;4.93;;;1.70;;
20669;SDS011;10494;50.868;4.180;2023-07-13T13:31:49;3.08;;;1.50;;
20669;SDS011;10494;50.868;4.180;2023-07-13T13:34:16;2.72;;;1.65;;
20669;SDS011;10494;50.868;4.180;2023-07-13T13:36:43;5.45;;;2.00;;
20669;SDS011;10494;50.868;4.180;2023-07-13T13:39:18;3.22;;;1.60;;
20669;SDS011;10494;50.868;4.180;2023-07-13T13:41:59;4.45;;;1.65;;
20669;SDS011;10494;50.868;4.180;2023-07-13T13:44:24;9.45;;;1.80;;
20669;SDS011;10494;50.868;4.180;2023-07-13T13:46:51;3.90;;;2.10;;
20669;SDS011;10494;50.868;4.180;2023-07-13T13:49:19;8.55;;;1.75;;
20669;SDS011;10494;50.868;4.180;2023-07-13T13:51:48;2.30;;;1.50;;
20669;SDS011;10494;50.868;4.180;2023-07-13T13:54:15;6.35;;;1.63;;
20669;SDS011;10494;50.868;4.180;2023-07-13T13:56:43;5.53;;;1.75;;
20669;SDS011;10494;50.868;4.180;2023-07-13T13:59:11;5.75;;;2.15;;
20669;SDS011;10494;50.868;4.180;2023-07-13T14:01:38;6.72;;;1.83;;
20669;SDS011;10494;50.868;4.180;2023-07-13T14:04:04;6.47;;;1.80;;
20669;SDS011;10494;50.868;4.180;2023-07-13T14:06:32;7.55;;;1.65;;
20669;SDS011;10494;50.868;4.180;2023-07-13T14:08:57;4.90;;;1.60;;
20669;SDS011;10494;50.868;4.180;2023-07-13T14:11:24;5.72;;;1.85;;
20669;SDS011;10494;50.868;4.180;2023-07-13T14:13:54;5.25;;;1.60;;
20669;SDS011;10494;50.868;4.180;2023-07-13T14:16:24;5.25;;;1.90;;
20669;SDS011;10494;50.868;4.180;2023-07-13T14:18:54;7.53;;;1.80;;
20669;SDS011;10494;50.868;4.180;2023-07-13T14:21:23;6.38;;;1.63;;
20669;SDS011;10494;50.868;4.180;2023-07-13T14:23:49;6.65;;;1.70;;
20669;SDS011;10494;50.868;4.180;2023-07-13T14:26:23;4.63;;;1.80;;
20669;SDS011;10494;50.868;4.180;2023-07-13T14:28:51;5.18;;;1.88;;
20669;SDS011;10494;50.868;4.180;2023-07-13T14:31:22;5.78;;;1.95;;
20669;SDS011;10494;50.868;4.180;2023-07-13T14:33:49;4.93;;;1.88;;
20669;SDS011;10494;50.868;4.180;2023-07-13T14:38:48;4.63;;;1.70;;
20669;SDS011;10494;50.868;4.180;2023-07-13T14:41:26;2.72;;;1.63;;
20669;SDS011;10494;50.868;4.180;2023-07-13T14:43:52;4.00;;;1.65;;
20669;SDS011;10494;50.868;4.180;2023-07-13T14:46:29;5.10;;;1.55;;
20669;SDS011;10494;50.868;4.180;2023-07-13T14:49:11;4.70;;;1.98;;
20669;SDS011;10494;50.868;4.180;2023-07-13T14:52:00;3.35;;;1.42;;
20669;SDS011;10494;50.868;4.180;2023-07-13T14:54:30;3.33;;;1.40;;
20669;SDS011;10494;50.868;4.180;2023-07-13T14:56:56;4.05;;;1.50;;
20669;SDS011;10494;50.868;4.180;2023-07-13T14:59:21;4.20;;;1.55;;
20669;SDS011;10494;50.868;4.180;2023-07-13T15:01:49;7.68;;;1.60;;
20669;SDS011;10494;50.868;4.180;2023-07-13T15:04:15;4.55;;;1.60;;
20669;SDS011;10494;50.868;4.180;2023-07-13T15:06:57;8.00;;;1.92;;
20669;SDS011;10494;50.868;4.180;2023-07-13T15:09:25;4.05;;;1.40;;
20669;SDS011;10494;50.868;4.180;2023-07-13T15:11:52;7.57;;;2.05;;
20669;SDS011;10494;50.868;4.180;2023-07-13T15:14:19;2.92;;;1.63;;
20669;SDS011;10494;50.868;4.180;2023-07-13T15:16:46;3.85;;;1.52;;
20669;SDS011;10494;50.868;4.180;2023-07-13T15:19:14;4.15;;;1.38;;
20669;SDS011;10494;50.868;4.180;2023-07-13T15:21:41;3.42;;;1.55;;
20669;SDS011;10494;50.868;4.180;2023-07-13T15:24:08;3.08;;;1.38;;
20669;SDS011;10494;50.868;4.180;2023-07-13T15:26:35;3.65;;;1.60;;
20669;SDS011;10494;50.868;4.180;2023-07-13T15:29:01;3.92;;;1.55;;
20669;SDS011;10494;50.868;4.180;2023-07-13T15:31:26;3.30;;;1.35;;
20669;SDS011;10494;50.868;4.180;2023-07-13T15:33:54;4.57;;;1.88;;
20669;SDS011;10494;50.868;4.180;2023-07-13T15:36:22;6.68;;;1.65;;
20669;SDS011;10494;50.868;4.180;2023-07-13T15:38:51;4.13;;;1.60;;
20669;SDS011;10494;50.868;4.180;2023-07-13T15:41:22;4.75;;;1.75;;
20669;SDS011;10494;50.868;4.180;2023-07-13T15:43:53;5.95;;;1.70;;
20669;SDS011;10494;50.868;4.180;2023-07-13T15:46:21;3.67;;;1.60;;